Vancouver, Washington
Current Conditions -  °F | °C
As of 6:53 AM on Wednesday 26 Nov 2014 (Local Time) from KVUO Reporting Station
Overcast Overcast  
Wind Chill: 57°   Ceiling: 5000
Heat Index: 57°   Visibility: 10mi
Dew Point: 50°   Wind: 5mph
Humidity: 77%   Direction: 120°ESE
Pressure: 30.19"   Gusts: NA
Location:  45.63°N, 122.67°W
Report Text: KVUO 261453Z AUTO 12004KT 10SM OVC050 14/10 A3019 RMK AO2 SLP223 T01390100 56015
Loading
Personal Weather Stations






























Interactive Weather Map New forecast layout! Learn more

10-Day Weather Forecast

Advertisements
Track Severe Weather on mobile